Time;durP1;ratioP1;P1;durP2;ratioP2;P2;SDS_P1;SDS_P2;PMS_P1;PMS_P2;Temp;Humidity;BMP_temperature;BMP_pressure;BME280_temperature;BME280_humidity;BME280_pressure;Samples;Min_cycle;Max_cycle;Signal;HPM_P1;HPM_P2
2024/05/06 00:01:39;;;;;;;6.07;3.50;;;16.10;99.90;19.80;99465.00;;;;5458027;26;19995;-49
2024/05/06 00:04:11;;;;;;;7.65;3.53;;;16.00;99.90;19.90;99465.00;;;;5447628;26;20003;-48
2024/05/06 00:06:41;;;;;;;5.75;2.97;;;16.00;99.90;19.60;99468.00;;;;5445264;26;20038;-48
2024/05/06 00:09:08;;;;;;;6.05;3.63;;;15.90;99.90;19.70;99469.00;;;;5452942;26;19996;-48
2024/05/06 00:11:34;;;;;;;8.55;3.30;;;15.90;99.90;19.70;99469.00;;;;5446840;26;19999;-49
2024/05/06 00:14:00;;;;;;;4.95;3.72;;;16.00;99.90;19.70;99465.00;;;;5459333;26;20010;-49
2024/05/06 00:16:26;;;;;;;4.85;3.30;;;15.90;99.90;19.50;99459.00;;;;5457913;26;20018;-47
2024/05/06 00:18:52;;;;;;;7.38;3.55;;;15.90;99.90;19.50;99461.00;;;;5434762;26;20010;-47
2024/05/06 00:21:18;;;;;;;6.10;3.35;;;15.90;99.90;19.70;99464.00;;;;5444171;26;20072;-48
2024/05/06 00:23:47;;;;;;;4.32;3.33;;;15.90;99.90;19.60;99462.00;;;;5445847;26;20359;-50
2024/05/06 00:26:13;;;;;;;7.13;3.65;;;15.70;99.90;19.50;99462.00;;;;5443424;26;20019;-47
2024/05/06 00:28:39;;;;;;;12.13;3.60;;;15.70;99.90;19.50;99468.00;;;;5447602;26;20660;-50
2024/05/06 00:31:06;;;;;;;5.00;3.33;;;15.70;99.90;19.50;99460.00;;;;5449596;26;20441;-49
2024/05/06 00:33:32;;;;;;;5.82;3.33;;;15.60;99.90;19.30;99460.00;;;;5455689;26;20058;-48
2024/05/06 00:36:01;;;;;;;4.45;3.53;;;15.60;99.90;19.10;99461.00;;;;5448828;26;19999;-48
2024/05/06 00:38:31;;;;;;;5.50;3.70;;;15.50;99.90;19.20;99464.00;;;;5451931;26;20521;-48
2024/05/06 00:40:58;;;;;;;4.95;3.47;;;15.50;99.90;19.10;99459.00;;;;5452976;26;20425;-48
2024/05/06 00:43:28;;;;;;;9.35;4.22;;;15.40;99.90;19.00;99466.00;;;;5450409;26;19999;-52
2024/05/06 00:45:56;;;;;;;7.97;3.70;;;15.40;99.90;18.90;99455.00;;;;5477770;26;20018;-50
2024/05/06 00:48:22;;;;;;;12.32;4.20;;;15.40;99.90;18.90;99467.00;;;;5432002;26;19998;-49
2024/05/06 00:50:49;;;;;;;7.85;3.40;;;15.40;99.90;19.00;99462.00;;;;5443912;26;20014;-49
2024/05/06 00:53:16;;;;;;;5.00;3.53;;;15.30;99.90;18.90;99449.00;;;;5445528;26;20431;-52
2024/05/06 00:55:43;;;;;;;10.73;4.43;;;15.30;99.90;18.90;99455.00;;;;5422417;26;20005;-48
2024/05/06 00:58:11;;;;;;;6.45;3.75;;;15.20;99.90;18.70;99455.00;;;;5451082;26;20011;-49
2024/05/06 01:00:37;;;;;;;4.00;3.53;;;15.10;99.90;18.80;99461.00;;;;5456054;26;20006;-48
2024/05/06 01:03:04;;;;;;;6.82;3.65;;;15.10;99.90;18.70;99460.00;;;;5448767;26;20010;-48
2024/05/06 01:05:30;;;;;;;7.47;4.22;;;15.00;99.90;18.80;99457.00;;;;5440775;26;19996;-48
2024/05/06 01:07:57;;;;;;;6.68;4.05;;;15.00;99.90;18.80;99457.00;;;;5448195;26;20003;-49
2024/05/06 01:10:23;;;;;;;8.18;4.43;;;15.10;99.90;18.90;99456.00;;;;5436840;26;20007;-49
2024/05/06 01:12:49;;;;;;;7.18;3.92;;;15.10;99.90;18.80;99457.00;;;;5443212;26;20003;-50
2024/05/06 01:15:15;;;;;;;10.68;3.85;;;15.10;99.90;18.90;99459.00;;;;5449082;26;19999;-55
2024/05/06 01:17:41;;;;;;;4.55;4.15;;;15.10;99.90;18.90;99452.00;;;;5444586;26;20109;-49
2024/05/06 01:20:08;;;;;;;7.28;5.43;;;15.10;99.90;18.70;99460.00;;;;5442753;26;20047;-49
2024/05/06 01:22:51;;;;;;;7.72;4.53;;;15.20;99.90;19.00;99457.00;;;;5441519;26;19995;-49
2024/05/06 01:25:19;;;;;;;6.28;4.20;;;15.20;99.90;19.00;99457.00;;;;5438945;26;20023;-47
2024/05/06 01:27:45;;;;;;;8.25;4.05;;;15.30;99.90;18.90;99452.00;;;;5440340;26;20010;-49
2024/05/06 01:30:12;;;;;;;10.20;4.72;;;15.20;99.90;19.10;99459.00;;;;5437873;26;20338;-50
2024/05/06 01:32:38;;;;;;;5.93;4.10;;;15.20;99.90;19.10;99458.00;;;;5451358;26;19996;-49
2024/05/06 01:35:04;;;;;;;7.60;4.15;;;15.30;99.90;19.10;99458.00;;;;5456721;26;20439;-48
2024/05/06 01:37:30;;;;;;;5.97;3.92;;;15.30;99.90;19.20;99466.00;;;;5452811;26;20101;-48
2024/05/06 01:39:57;;;;;;;6.63;4.47;;;15.30;99.90;19.10;99458.00;;;;5450319;26;20356;-50
2024/05/06 01:42:23;;;;;;;6.20;4.55;;;15.30;99.90;18.80;99466.00;;;;5440535;26;20007;-48
2024/05/06 01:44:49;;;;;;;9.55;4.93;;;15.30;99.90;18.80;99459.00;;;;5454891;26;20017;-48
2024/05/06 01:47:15;;;;;;;7.03;4.45;;;15.20;99.90;18.80;99464.00;;;;5436808;26;19999;-55
2024/05/06 01:49:41;;;;;;;7.70;4.25;;;15.20;99.90;19.00;99457.00;;;;5441847;26;20004;-49
2024/05/06 01:52:07;;;;;;;8.32;4.38;;;15.20;99.90;18.80;99462.00;;;;5444020;26;20337;-48
2024/05/06 01:54:34;;;;;;;9.13;4.80;;;15.20;99.90;18.60;99463.00;;;;5452773;26;20075;-48
2024/05/06 01:57:00;;;;;;;9.63;5.43;;;15.20;99.90;18.70;99463.00;;;;5451369;26;20010;-54
2024/05/06 01:59:26;;;;;;;10.73;4.40;;;15.20;99.90;18.70;99457.00;;;;5437678;26;20032;-52
2024/05/06 02:01:52;;;;;;;7.30;4.30;;;15.20;99.90;18.80;99457.00;;;;5452666;26;20013;-54
2024/05/06 02:04:18;;;;;;;6.95;4.82;;;15.20;99.90;18.70;99456.00;;;;5443613;26;19998;-51
2024/05/06 02:06:47;;;;;;;7.35;4.57;;;15.10;99.90;18.70;99459.00;;;;5448143;26;20033;-53
2024/05/06 02:09:13;;;;;;;7.30;4.88;;;15.20;99.90;18.70;99451.00;;;;5445666;26;20066;-49
2024/05/06 02:11:40;;;;;;;5.03;4.45;;;15.20;99.90;18.80;99440.00;;;;5435455;26;20003;-48
2024/05/06 02:14:07;;;;;;;8.60;4.57;;;15.20;99.90;18.40;99434.00;;;;5439339;26;19998;-49
2024/05/06 02:16:33;;;;;;;10.27;4.57;;;15.10;99.90;18.70;99434.00;;;;5446462;26;19999;-51
2024/05/06 02:18:59;;;;;;;6.05;4.63;;;15.20;99.90;18.60;99433.00;;;;5440902;26;19999;-49
2024/05/06 02:21:25;;;;;;;5.00;4.50;;;15.20;99.90;18.70;99442.00;;;;5439890;26;20003;-47
2024/05/06 02:23:51;;;;;;;7.60;4.60;;;15.20;99.90;18.90;99434.00;;;;5445253;26;20328;-50
2024/05/06 02:26:17;;;;;;;12.00;4.82;;;15.10;99.90;18.90;99432.00;;;;5451147;26;20003;-48
2024/05/06 02:28:43;;;;;;;8.80;4.95;;;15.10;99.90;18.50;99436.00;;;;5441857;26;20006;-48
2024/05/06 02:31:09;;;;;;;7.60;4.88;;;15.10;99.90;18.40;99441.00;;;;5450845;26;20325;-47
2024/05/06 02:33:36;;;;;;;8.55;5.15;;;15.10;99.90;18.30;99439.00;;;;5465349;26;20009;-49
2024/05/06 02:36:03;;;;;;;8.98;4.78;;;15.00;99.90;18.20;99441.00;;;;5436644;26;19996;-49
2024/05/06 02:38:29;;;;;;;9.20;5.22;;;14.90;99.90;18.00;99447.00;;;;5454229;26;20523;-52
2024/05/06 02:40:56;;;;;;;8.48;5.38;;;14.90;99.90;17.90;99439.00;;;;5448455;26;20420;-48
2024/05/06 02:43:22;;;;;;;8.73;5.13;;;14.80;99.90;17.80;99444.00;;;;5444375;26;20013;-48
2024/05/06 02:45:48;;;;;;;10.57;5.35;;;14.80;99.90;17.90;99447.00;;;;5446607;26;19998;-48
2024/05/06 02:48:14;;;;;;;5.70;5.07;;;14.70;99.90;17.90;99447.00;;;;5420937;26;19999;-53
2024/05/06 02:50:40;;;;;;;8.23;4.90;;;14.60;99.90;17.80;99449.00;;;;5437576;26;20034;-49
2024/05/06 02:53:06;;;;;;;8.18;4.90;;;14.60;99.90;17.80;99447.00;;;;5441426;26;20000;-48
2024/05/06 02:55:32;;;;;;;16.88;5.32;;;14.50;99.90;17.40;99452.00;;;;5446759;26;20010;-54
2024/05/06 02:57:59;;;;;;;6.97;5.55;;;14.40;99.90;17.20;99449.00;;;;5440984;26;20010;-49
2024/05/06 03:00:25;;;;;;;7.95;5.75;;;14.30;99.90;17.10;99462.00;;;;5446848;26;19995;-48
2024/05/06 03:02:51;;;;;;;7.97;5.15;;;14.20;99.90;17.20;99449.00;;;;5443857;26;20013;-47
2024/05/06 03:05:17;;;;;;;6.43;5.57;;;14.10;99.90;17.20;99455.00;;;;5444812;26;20439;-49
2024/05/06 03:07:43;;;;;;;6.50;5.60;;;14.10;99.90;17.10;99444.00;;;;5440416;26;20006;-49
2024/05/06 03:10:09;;;;;;;8.50;5.90;;;14.10;99.90;17.10;99457.00;;;;5437861;26;20025;-48
2024/05/06 03:12:35;;;;;;;10.43;6.38;;;14.00;99.90;17.00;99457.00;;;;5433745;26;20049;-48
2024/05/06 03:15:02;;;;;;;10.77;6.22;;;14.00;99.90;16.80;99461.00;;;;5435289;26;20015;-54
2024/05/06 03:17:28;;;;;;;8.05;6.15;;;13.90;99.90;17.10;99468.00;;;;5451461;26;19995;-49
2024/05/06 03:19:54;;;;;;;8.55;6.13;;;13.90;99.90;16.90;99456.00;;;;5435348;26;20044;-47
2024/05/06 03:22:21;;;;;;;8.50;6.00;;;13.80;99.90;17.00;99467.00;;;;5440764;26;20072;-47
2024/05/06 03:24:47;;;;;;;6.68;5.78;;;13.80;99.90;17.00;99468.00;;;;5447268;26;20317;-48
2024/05/06 03:27:13;;;;;;;6.97;6.03;;;13.80;99.90;16.90;99468.00;;;;5449549;26;20002;-47
2024/05/06 03:29:39;;;;;;;8.55;6.90;;;13.70;99.90;16.90;99470.00;;;;5451336;26;20000;-48
2024/05/06 03:32:06;;;;;;;8.65;6.15;;;13.70;99.90;16.60;99470.00;;;;5449110;26;19995;-47
2024/05/06 03:34:32;;;;;;;10.98;6.88;;;13.70;99.90;16.80;99470.00;;;;5435546;26;20507;-54
2024/05/06 03:36:58;;;;;;;6.78;6.00;;;13.70;99.90;16.80;99469.00;;;;5452241;26;20004;-53
2024/05/06 03:39:24;;;;;;;8.55;6.72;;;13.70;99.90;16.70;99473.00;;;;5438335;26;20014;-48
2024/05/06 03:41:50;;;;;;;10.40;6.28;;;13.70;99.90;16.70;99467.00;;;;5471403;26;19995;-47
2024/05/06 03:44:16;;;;;;;8.35;6.70;;;13.70;99.90;16.90;99474.00;;;;5449957;26;20013;-48
2024/05/06 03:46:42;;;;;;;12.70;6.95;;;13.70;99.90;17.20;99467.00;;;;5440351;26;20039;-52
2024/05/06 03:49:08;;;;;;;11.18;6.95;;;13.70;99.90;17.20;99461.00;;;;5442951;26;20405;-49
2024/05/06 03:51:34;;;;;;;12.05;7.15;;;13.70;99.90;17.40;99458.00;;;;5439542;26;19998;-47
2024/05/06 03:54:00;;;;;;;10.20;7.28;;;13.80;99.90;17.50;99464.00;;;;5445687;26;20005;-52
2024/05/06 03:56:26;;;;;;;7.90;6.53;;;13.90;99.90;17.50;99458.00;;;;5435978;26;20004;-49
2024/05/06 03:58:52;;;;;;;11.10;6.70;;;13.90;99.90;17.60;99458.00;;;;5433812;26;20011;-49
2024/05/06 04:01:20;;;;;;;8.63;6.35;;;13.90;99.90;17.60;99462.00;;;;5438234;26;20079;-48
2024/05/06 04:03:47;;;;;;;10.93;7.10;;;14.00;99.90;17.10;99462.00;;;;5448133;26;20003;-47
2024/05/06 04:06:14;;;;;;;12.68;7.03;;;14.00;99.90;17.30;99457.00;;;;5443797;26;20028;-54
2024/05/06 04:08:41;;;;;;;9.50;6.53;;;14.00;99.90;17.70;99456.00;;;;5446444;26;21426;-49
2024/05/06 04:11:08;;;;;;;13.35;8.00;;;14.10;99.90;17.80;99459.00;;;;5447169;26;20035;-47
2024/05/06 04:13:34;;;;;;;12.38;6.80;;;14.20;99.90;17.70;99460.00;;;;5431919;26;19999;-48
2024/05/06 04:16:01;;;;;;;13.20;6.55;;;14.20;99.90;17.80;99453.00;;;;5443609;26;20012;-48
2024/05/06 04:18:28;;;;;;;11.13;6.80;;;14.30;99.90;17.40;99451.00;;;;5436683;26;19996;-48
2024/05/06 04:20:54;;;;;;;10.32;6.68;;;14.30;99.90;17.50;99463.00;;;;5441489;26;19998;-48
2024/05/06 04:28:50;;;;;;;9.23;7.53;;;14.40;99.90;17.60;99447.00;;;;5446672;26;19995;-48
2024/05/06 04:31:17;;;;;;;8.77;6.82;;;14.50;99.90;17.80;99445.00;;;;5440158;26;20000;-49
2024/05/06 04:33:44;;;;;;;10.38;6.90;;;14.60;99.90;18.10;99433.00;;;;5444132;26;20423;-49
2024/05/06 04:36:12;;;;;;;11.98;7.85;;;14.60;99.90;17.80;99449.00;;;;5434464;26;20391;-49
2024/05/06 04:38:38;;;;;;;10.27;7.10;;;14.70;99.90;18.00;99437.00;;;;5444569;26;20285;-53
2024/05/06 04:41:04;;;;;;;10.75;7.57;;;14.70;99.90;18.10;99438.00;;;;5440666;26;20014;-49
2024/05/06 04:43:30;;;;;;;10.38;6.65;;;14.80;99.90;18.00;99454.00;;;;5440189;26;20432;-51
2024/05/06 04:45:58;;;;;;;15.82;7.00;;;14.80;99.90;17.80;99449.00;;;;5441522;26;20428;-54
2024/05/06 04:48:24;;;;;;;10.85;6.95;;;14.90;99.90;17.80;99444.00;;;;5439002;26;20445;-48
2024/05/06 04:50:50;;;;;;;9.38;7.07;;;14.90;99.90;17.50;99453.00;;;;5447023;26;19994;-47
2024/05/06 04:53:17;;;;;;;9.00;7.55;;;14.90;99.90;18.00;99442.00;;;;5452844;26;20014;-48
2024/05/06 04:55:44;;;;;;;21.23;8.00;;;15.00;99.90;18.30;99447.00;;;;5440063;26;20071;-50
2024/05/06 04:58:11;;;;;;;9.80;7.68;;;15.00;99.90;18.10;99444.00;;;;5443828;26;19994;-48
2024/05/06 05:00:37;;;;;;;13.95;7.55;;;15.10;99.90;18.60;99454.00;;;;5433298;26;19999;-49
2024/05/06 05:03:03;;;;;;;8.13;7.30;;;15.20;99.90;18.70;99463.00;;;;5437521;26;20593;-52
2024/05/06 05:05:30;;;;;;;8.70;7.68;;;15.40;99.90;18.40;99458.00;;;;5433548;26;20000;-48
2024/05/06 05:07:56;;;;;;;9.75;7.63;;;15.50;99.90;18.40;99461.00;;;;5437813;26;19999;-47
2024/05/06 05:10:22;;;;;;;11.90;7.13;;;15.50;99.90;18.20;99447.00;;;;5448683;26;20036;-49
2024/05/06 05:12:48;;;;;;;9.45;7.28;;;15.50;99.90;18.30;99449.00;;;;5442751;26;20011;-48
2024/05/06 05:15:14;;;;;;;8.48;7.07;;;15.60;99.90;18.70;99451.00;;;;5439611;26;19995;-49
2024/05/06 05:17:41;;;;;;;8.98;7.72;;;15.70;99.90;18.70;99446.00;;;;5440962;26;20083;-54
2024/05/06 05:20:08;;;;;;;13.25;8.15;;;15.80;99.90;19.10;99434.00;;;;5447250;26;20014;-47
2024/05/06 05:22:34;;;;;;;8.10;7.20;;;15.90;99.90;19.10;99441.00;;;;5439834;26;20014;-52
2024/05/06 05:25:00;;;;;;;10.15;6.95;;;15.90;99.90;19.30;99442.00;;;;5426890;26;20011;-61
2024/05/06 05:27:26;;;;;;;9.88;6.93;;;16.00;99.90;19.30;99439.00;;;;5440674;26;20017;-61
2024/05/06 05:29:52;;;;;;;10.68;7.07;;;16.10;99.90;19.50;99440.00;;;;5445385;26;20344;-49
2024/05/06 05:32:19;;;;;;;8.05;6.57;;;16.30;99.90;19.20;99448.00;;;;5434918;26;20337;-49
2024/05/06 05:34:45;;;;;;;7.05;6.35;;;16.40;99.90;19.40;99453.00;;;;5435955;26;20394;-50
2024/05/06 05:37:11;;;;;;;10.27;7.28;;;16.50;99.90;19.50;99445.00;;;;5431374;26;19999;-57
2024/05/06 05:39:37;;;;;;;11.90;7.25;;;16.60;99.90;19.70;99454.00;;;;5433435;26;19999;-49
2024/05/06 05:42:04;;;;;;;8.70;6.97;;;16.70;99.90;19.60;99455.00;;;;5442694;26;19995;-48
2024/05/06 05:44:30;;;;;;;9.40;6.78;;;16.70;99.90;20.00;99448.00;;;;5434330;26;19999;-51
2024/05/06 05:46:56;;;;;;;7.53;6.63;;;16.80;99.90;20.20;99459.00;;;;5443083;26;20003;-48
2024/05/06 05:49:23;;;;;;;11.65;6.68;;;17.00;99.90;20.20;99452.00;;;;5437654;26;19996;-48
2024/05/06 05:51:52;;;;;;;11.13;6.72;;;17.10;99.90;20.10;99452.00;;;;5433481;26;20003;-48
2024/05/06 05:54:18;;;;;;;8.07;6.18;;;17.10;99.90;20.20;99461.00;;;;5459101;26;20102;-49
2024/05/06 05:56:44;;;;;;;6.53;5.90;;;17.10;99.90;19.90;99465.00;;;;5445919;26;20009;-51
2024/05/06 05:59:10;;;;;;;6.68;6.05;;;17.10;99.90;20.10;99459.00;;;;5449954;26;20002;-49
2024/05/06 06:01:43;;;;;;;7.68;6.70;;;17.10;99.90;19.90;99468.00;;;;5449784;26;20011;-49
2024/05/06 06:04:14;;;;;;;8.00;6.95;;;17.00;99.90;19.60;99468.00;;;;5440953;26;20015;-49
2024/05/06 06:06:40;;;;;;;9.05;7.20;;;16.90;99.90;19.40;99475.00;;;;5434783;26;20003;-50
2024/05/06 06:09:06;;;;;;;9.00;7.43;;;16.70;99.90;19.70;99484.00;;;;5453550;26;20003;-50
2024/05/06 06:11:33;;;;;;;8.30;7.50;;;16.70;99.90;19.80;99487.00;;;;5431330;26;20007;-51
2024/05/06 06:13:59;;;;;;;9.02;7.60;;;16.80;99.90;19.60;99490.00;;;;5453411;26;20024;-50
2024/05/06 06:16:25;;;;;;;10.65;8.00;;;16.80;99.90;19.30;99492.00;;;;5436469;26;20007;-50
2024/05/06 06:18:51;;;;;;;13.55;8.52;;;16.70;99.90;19.20;99503.00;;;;5440387;26;20091;-50
2024/05/06 06:21:18;;;;;;;8.95;8.05;;;16.60;99.90;19.30;99505.00;;;;5440478;26;20309;-48
2024/05/06 06:23:44;;;;;;;10.23;8.27;;;16.50;99.90;19.20;99500.00;;;;5439386;26;20035;-57
2024/05/06 06:26:10;;;;;;;11.82;8.50;;;16.50;99.90;19.20;99500.00;;;;5439265;26;20013;-48
2024/05/06 06:28:36;;;;;;;11.35;9.20;;;16.50;99.90;19.10;99507.00;;;;5447825;26;20017;-49
2024/05/06 06:31:02;;;;;;;9.07;8.13;;;16.60;99.90;19.50;99517.00;;;;5454627;26;19994;-51
2024/05/06 06:33:29;;;;;;;11.70;8.60;;;16.70;99.90;19.80;99520.00;;;;5455843;26;20411;-55
2024/05/06 06:35:55;;;;;;;11.75;8.98;;;16.90;99.90;19.20;99514.00;;;;5453141;26;20009;-48
2024/05/06 06:38:21;;;;;;;10.00;8.82;;;16.80;99.90;19.40;99513.00;;;;5452431;26;20129;-49
2024/05/06 06:40:47;;;;;;;11.02;8.55;;;16.70;99.90;19.80;99510.00;;;;5442034;26;20312;-50
2024/05/06 06:43:14;;;;;;;16.10;8.77;;;16.70;99.90;19.90;99502.00;;;;5440267;26;20007;-51
2024/05/06 06:45:40;;;;;;;9.85;8.85;;;16.70;99.90;20.10;99503.00;;;;5431587;26;20436;-50
2024/05/06 06:48:06;;;;;;;10.48;8.68;;;16.80;99.90;19.80;99515.00;;;;5427697;26;20047;-49
2024/05/06 06:50:32;;;;;;;12.63;8.13;;;16.80;99.90;19.80;99508.00;;;;5450055;26;20017;-48
2024/05/06 06:52:58;;;;;;;9.60;8.20;;;16.90;99.90;20.00;99507.00;;;;5454751;26;20079;-48
2024/05/06 06:55:24;;;;;;;8.75;7.85;;;16.90;99.90;19.70;99501.00;;;;5454527;26;20011;-51
2024/05/06 06:57:51;;;;;;;10.60;7.57;;;16.90;99.90;20.00;99510.00;;;;5453060;26;20009;-48
2024/05/06 07:00:17;;;;;;;8.18;7.40;;;17.00;99.90;20.00;99505.00;;;;5477366;26;19998;-49
2024/05/06 07:02:43;;;;;;;10.68;7.65;;;17.10;99.90;20.30;99509.00;;;;5448776;26;20075;-63
2024/05/06 07:05:09;;;;;;;13.23;7.45;;;17.20;99.90;20.80;99505.00;;;;5464041;26;19998;-49
2024/05/06 07:07:36;;;;;;;9.07;7.30;;;17.40;99.90;20.90;99509.00;;;;5476041;26;20071;-49
2024/05/06 07:10:02;;;;;;;10.18;7.25;;;17.60;99.90;20.80;99518.00;;;;5439415;26;20029;-49
2024/05/06 07:12:28;;;;;;;10.18;6.97;;;17.60;99.90;21.00;99511.00;;;;5455059;26;20007;-49
2024/05/06 07:14:54;;;;;;;10.68;7.20;;;17.80;99.90;21.00;99517.00;;;;5435689;26;20007;-49
2024/05/06 07:17:21;;;;;;;10.32;6.35;;;17.80;99.90;20.90;99514.00;;;;5446830;26;19999;-59
2024/05/06 07:19:47;;;;;;;6.55;5.60;;;17.80;99.90;20.80;99509.00;;;;5474809;26;20096;-50
2024/05/06 07:22:14;;;;;;;6.72;6.07;;;17.80;99.90;21.10;99507.00;;;;5447393;26;20006;-48
2024/05/06 07:24:40;;;;;;;6.00;5.40;;;18.00;99.90;21.60;99510.00;;;;5457932;26;20408;-49
2024/05/06 07:27:06;;;;;;;7.68;5.68;;;18.10;99.90;21.60;99511.00;;;;5444294;26;20606;-49
2024/05/06 07:29:32;;;;;;;7.40;5.20;;;18.20;99.90;21.60;99513.00;;;;5440550;26;20011;-51
2024/05/06 07:31:58;;;;;;;6.30;4.88;;;18.30;99.90;21.60;99518.00;;;;5446909;26;19999;-58
2024/05/06 07:34:24;;;;;;;6.75;5.38;;;18.40;99.90;21.40;99517.00;;;;5441837;26;20007;-48
2024/05/06 07:36:51;;;;;;;9.10;4.63;;;18.30;99.90;21.40;99507.00;;;;5442195;26;20081;-50
2024/05/06 07:39:17;;;;;;;11.15;4.35;;;18.40;99.90;22.10;99505.00;;;;5441976;26;20000;-55
2024/05/06 07:41:43;;;;;;;6.88;4.28;;;18.60;99.90;22.60;99505.00;;;;5447753;26;20005;-49
2024/05/06 07:44:09;;;;;;;3.83;3.40;;;18.90;99.90;22.60;99505.00;;;;5457403;26;20485;-49
2024/05/06 07:46:35;;;;;;;6.05;3.83;;;19.10;99.90;22.60;99497.00;;;;5438782;26;20013;-50
2024/05/06 07:49:01;;;;;;;4.10;3.80;;;19.40;99.90;22.80;99499.00;;;;5453181;26;19999;-54
2024/05/06 07:51:28;;;;;;;6.68;4.10;;;19.30;99.90;22.30;99493.00;;;;5436902;26;20008;-56
2024/05/06 07:53:54;;;;;;;4.15;3.65;;;19.40;99.90;22.60;99506.00;;;;5453804;26;20035;-50
2024/05/06 07:56:20;;;;;;;5.40;3.47;;;19.50;99.90;21.90;99499.00;;;;5453461;26;19999;-53
2024/05/06 07:58:47;;;;;;;3.70;3.40;;;19.30;99.90;22.10;99501.00;;;;5446151;26;20010;-47
2024/05/06 08:01:13;;;;;;;3.50;2.72;;;19.20;99.90;22.00;99503.00;;;;5455301;26;20011;-48
2024/05/06 08:03:39;;;;;;;4.25;3.00;;;19.10;99.90;22.40;99501.00;;;;5452106;26;19999;-48
2024/05/06 08:06:07;;;;;;;9.07;3.00;;;19.30;99.90;22.70;99501.00;;;;5461775;26;20010;-51
2024/05/06 08:08:33;;;;;;;7.90;2.97;;;19.50;99.90;23.00;99492.00;;;;5453296;26;20036;-49
2024/05/06 08:10:59;;;;;;;3.20;2.80;;;19.90;99.90;22.70;99496.00;;;;5449618;26;20563;-48
2024/05/06 08:13:26;;;;;;;3.75;3.05;;;19.90;99.90;23.20;99495.00;;;;5450853;26;20429;-51
2024/05/06 08:15:52;;;;;;;5.28;2.80;;;20.20;99.90;23.80;99493.00;;;;5454982;26;20010;-48
2024/05/06 08:18:19;;;;;;;6.65;2.80;;;20.60;99.90;24.20;99485.00;;;;5455408;26;20434;-51
2024/05/06 08:20:45;;;;;;;7.10;3.17;;;21.00;99.90;23.30;99507.00;;;;5455746;26;20042;-51
2024/05/06 08:23:11;;;;;;;8.70;2.80;;;20.60;99.90;23.40;99507.00;;;;5453579;26;20003;-49
2024/05/06 08:25:37;;;;;;;4.30;3.20;;;20.40;99.90;23.60;99505.00;;;;5449165;26;20402;-48
2024/05/06 08:28:04;;;;;;;3.85;2.80;;;20.50;99.90;22.60;99521.00;;;;5453884;26;19998;-50
2024/05/06 08:30:30;;;;;;;3.08;2.70;;;20.20;99.90;22.90;99513.00;;;;5447246;26;20017;-49
2024/05/06 08:32:57;;;;;;;3.88;2.92;;;19.90;99.90;22.70;99518.00;;;;5469823;26;20501;-51
2024/05/06 08:35:23;;;;;;;3.50;3.20;;;19.90;99.90;23.00;99507.00;;;;5425952;26;20048;-48
2024/05/06 08:37:49;;;;;;;8.02;3.50;;;19.80;99.90;23.70;99510.00;;;;5449693;26;20164;-51
2024/05/06 08:40:19;;;;;;;5.50;3.58;;;20.20;99.90;23.70;99507.00;;;;5451412;26;19998;-49
2024/05/06 08:42:50;;;;;;;5.20;3.30;;;20.40;99.90;23.70;99512.00;;;;5470181;26;20002;-52
2024/05/06 08:45:19;;;;;;;3.78;3.20;;;20.40;99.90;24.20;99508.00;;;;5458873;26;20028;-50
2024/05/06 08:47:47;;;;;;;9.77;3.30;;;20.90;99.90;24.80;99518.00;;;;5460573;26;19999;-50
2024/05/06 08:50:16;;;;;;;8.25;3.15;;;21.10;99.90;24.80;99514.00;;;;5434952;26;20003;-50
2024/05/06 08:52:43;;;;;;;6.53;3.15;;;21.40;99.90;24.90;99515.00;;;;5438264;26;20009;-48
2024/05/06 08:55:09;;;;;;;4.00;2.60;;;21.50;99.90;24.70;99523.00;;;;5465334;26;20321;-48
2024/05/06 08:57:39;;;;;;;3.90;2.70;;;21.50;99.90;23.10;99513.00;;;;5452996;26;19999;-52
2024/05/06 09:00:08;;;;;;;3.28;2.45;;;20.60;99.90;23.20;99515.00;;;;5450813;26;20007;-47
2024/05/06 09:02:35;;;;;;;4.50;1.95;;;20.40;99.90;23.40;99503.00;;;;5449944;26;20006;-47
2024/05/06 09:05:03;;;;;;;2.25;1.70;;;20.50;99.80;23.10;99501.00;;;;5452196;26;20006;-47
2024/05/06 09:07:29;;;;;;;7.55;2.20;;;20.30;99.10;23.40;99509.00;;;;5448113;26;20769;-50
2024/05/06 09:09:55;;;;;;;1.88;1.77;;;20.30;99.60;23.20;99506.00;;;;5444366;26;19999;-48
2024/05/06 09:12:24;;;;;;;2.03;1.70;;;20.30;98.50;23.60;99512.00;;;;5457973;26;20002;-46
2024/05/06 09:14:50;;;;;;;1.88;1.60;;;20.50;99.70;23.60;99505.00;;;;5455870;26;20010;-46
2024/05/06 09:17:22;;;;;;;4.53;2.20;;;20.50;99.90;23.60;99512.00;;;;5444816;26;20007;-48
2024/05/06 09:19:48;;;;;;;5.28;1.80;;;20.60;99.10;24.10;99515.00;;;;5468782;26;20053;-48
2024/05/06 09:22:14;;;;;;;4.50;1.75;;;20.80;99.10;24.80;99515.00;;;;5467400;26;20012;-47
2024/05/06 09:24:40;;;;;;;2.60;2.08;;;21.10;98.50;25.20;99514.00;;;;5433131;26;19995;-48
2024/05/06 09:27:09;;;;;;;4.60;1.85;;;21.30;98.10;25.30;99517.00;;;;5450434;26;20328;-50
2024/05/06 09:29:35;;;;;;;4.10;2.30;;;21.50;97.70;25.10;99519.00;;;;5454739;26;20059;-51
2024/05/06 09:32:05;;;;;;;2.10;1.98;;;21.60;97.50;24.50;99521.00;;;;5455640;26;19999;-47
2024/05/06 09:34:35;;;;;;;6.55;2.35;;;21.20;97.30;24.40;99519.00;;;;5457026;26;19998;-69
2024/05/06 09:37:03;;;;;;;2.38;2.17;;;20.80;98.70;24.40;99513.00;;;;5473725;26;20149;-48
2024/05/06 09:39:40;;;;;;;3.25;2.10;;;20.80;98.20;24.70;99527.00;;;;5453869;26;19995;-50
2024/05/06 09:42:22;;;;;;;4.13;2.00;;;20.90;98.60;24.30;99527.00;;;;5455017;26;20003;-47
2024/05/06 09:44:49;;;;;;;2.85;2.45;;;20.80;97.20;24.60;99517.00;;;;5455601;26;20009;-47
2024/05/06 09:47:15;;;;;;;5.85;1.50;;;20.90;97.60;24.40;99516.00;;;;5455239;26;19999;-48
2024/05/06 09:49:43;;;;;;;3.15;1.83;;;21.00;95.80;24.10;99513.00;;;;5454854;26;19999;-47
2024/05/06 09:52:11;;;;;;;3.38;1.20;;;21.10;93.20;23.70;99520.00;;;;5455934;26;20015;-47
2024/05/06 09:54:39;;;;;;;2.13;1.40;;;20.90;93.50;23.70;99514.00;;;;5453894;26;20003;-46
2024/05/06 09:57:08;;;;;;;2.25;1.40;;;20.70;94.30;24.10;99518.00;;;;5454524;26;19995;-48
2024/05/06 09:59:36;;;;;;;3.08;1.35;;;20.90;93.20;24.60;99517.00;;;;5455338;26;20002;-48
2024/05/06 10:02:08;;;;;;;1.50;1.40;;;21.30;91.80;25.20;99523.00;;;;5439793;26;20011;-48
2024/05/06 10:04:34;;;;;;;3.95;1.83;;;21.50;92.50;25.30;99511.00;;;;5440863;26;19998;-55
2024/05/06 10:07:01;;;;;;;2.78;1.50;;;21.80;91.40;26.10;99519.00;;;;5443200;26;20035;-51
2024/05/06 10:09:31;;;;;;;2.53;1.75;;;22.40;92.00;24.50;99526.00;;;;5444454;26;20420;-49
2024/05/06 10:11:58;;;;;;;3.42;1.70;;;21.80;90.50;23.90;99534.00;;;;5456553;26;20010;-54
2024/05/06 10:14:24;;;;;;;6.68;2.10;;;21.20;91.20;24.10;99534.00;;;;5454956;26;20356;-47
2024/05/06 10:16:51;;;;;;;2.92;1.70;;;21.00;91.80;24.30;99519.00;;;;5455043;26;20166;-46
2024/05/06 10:19:18;;;;;;;2.30;2.10;;;20.90;93.00;24.30;99529.00;;;;5454585;26;20013;-47
2024/05/06 10:21:47;;;;;;;3.38;2.40;;;21.10;93.00;23.90;99530.00;;;;5455136;26;20413;-48
2024/05/06 10:24:23;;;;;;;6.68;2.28;;;20.90;93.50;24.40;99533.00;;;;5453070;26;20428;-48
2024/05/06 10:26:55;;;;;;;4.82;2.42;;;21.10;93.20;25.00;99530.00;;;;5455259;26;19998;-47
2024/05/06 10:29:22;;;;;;;5.65;1.65;;;21.20;94.50;25.10;99527.00;;;;5424139;26;20007;-47
2024/05/06 10:31:51;;;;;;;4.03;1.80;;;21.50;92.50;24.90;99528.00;;;;5454904;26;20010;-48
2024/05/06 10:34:28;;;;;;;2.58;2.33;;;21.40;92.40;23.80;99536.00;;;;5453325;26;20432;-47
2024/05/06 10:37:07;;;;;;;6.63;1.65;;;20.90;91.80;23.60;99531.00;;;;5454537;26;19998;-48
2024/05/06 10:39:36;;;;;;;4.63;1.75;;;20.60;92.40;23.60;99529.00;;;;5429871;26;20003;-48
2024/05/06 10:42:09;;;;;;;4.85;2.00;;;20.40;92.90;24.10;99530.00;;;;5454381;26;19998;-47
2024/05/06 10:44:43;;;;;;;;;;;20.70;93.70;25.10;99526.00;;;;5484961;26;20014;-47
2024/05/06 10:47:09;;;;;;;3.53;1.17;;;21.30;92.60;25.10;99522.00;;;;5455264;26;20365;-47
2024/05/06 10:49:36;;;;;;;3.35;1.20;;;21.50;90.20;25.10;99517.00;;;;5443965;26;19995;-47
2024/05/06 10:52:02;;;;;;;5.22;1.23;;;21.60;87.70;24.50;99539.00;;;;5418908;26;20360;-60
2024/05/06 10:54:30;;;;;;;5.68;1.50;;;21.40;87.10;24.20;99524.00;;;;5431315;26;20009;-55
2024/05/06 10:56:57;;;;;;;3.92;1.00;;;21.20;86.10;24.90;99532.00;;;;5455233;26;20083;-47